sensor_id;sensor_type;location;lat;lon;timestamp;pressure;altitude;pressure_sealevel;temperature;humidity
64211;BME280;50528;48.514;14.394;2023-05-22T00:00:05;93779.88;;;14.04;67.43
64211;BME280;50528;48.514;14.394;2023-05-22T00:01:04;93779.31;;;13.98;67.36
64211;BME280;50528;48.514;14.394;2023-05-22T00:01:39;93776.90;;;13.96;67.55
64211;BME280;50528;48.514;14.394;2023-05-22T00:02:17;93776.16;;;13.95;67.65
64211;BME280;50528;48.514;14.394;2023-05-22T00:02:51;93777.13;;;13.95;67.87
64211;BME280;50528;48.514;14.394;2023-05-22T00:03:25;93775.73;;;13.95;67.98
64211;BME280;50528;48.514;14.394;2023-05-22T00:03:58;93777.23;;;13.94;68.04
64211;BME280;50528;48.514;14.394;2023-05-22T00:04:32;93776.49;;;13.94;68.02
64211;BME280;50528;48.514;14.394;2023-05-22T00:05:05;93775.10;;;13.95;68.12
64211;BME280;50528;48.514;14.394;2023-05-22T00:05:39;93773.42;;;13.94;68.11
64211;BME280;50528;48.514;14.394;2023-05-22T00:06:13;93774.90;;;13.94;68.29
64211;BME280;50528;48.514;14.394;2023-05-22T00:06:47;93773.21;;;13.92;68.29
64211;BME280;50528;48.514;14.394;2023-05-22T00:07:21;93767.56;;;13.91;68.53
64211;BME280;50528;48.514;14.394;2023-05-22T00:07:56;93771.83;;;13.93;68.61
64211;BME280;50528;48.514;14.394;2023-05-22T00:08:29;93773.79;;;13.93;68.72
64211;BME280;50528;48.514;14.394;2023-05-22T00:09:03;93770.09;;;13.93;68.74
64211;BME280;50528;48.514;14.394;2023-05-22T00:09:36;93770.67;;;13.93;68.84
64211;BME280;50528;48.514;14.394;2023-05-22T00:10:10;93772.15;;;13.92;68.96
64211;BME280;50528;48.514;14.394;2023-05-22T00:10:48;93771.52;;;13.92;69.01
64211;BME280;50528;48.514;14.394;2023-05-22T00:11:27;93773.09;;;13.91;69.02
64211;BME280;50528;48.514;14.394;2023-05-22T00:12:00;93769.83;;;13.91;69.09
64211;BME280;50528;48.514;14.394;2023-05-22T00:12:34;93769.41;;;13.92;69.22
64211;BME280;50528;48.514;14.394;2023-05-22T00:13:07;93766.81;;;13.92;69.21
64211;BME280;50528;48.514;14.394;2023-05-22T00:13:40;93769.09;;;13.93;69.25
64211;BME280;50528;48.514;14.394;2023-05-22T00:14:17;93771.57;;;13.93;69.24
64211;BME280;50528;48.514;14.394;2023-05-22T00:14:50;93771.14;;;13.92;69.21
64211;BME280;50528;48.514;14.394;2023-05-22T00:15:25;93769.08;;;13.93;69.31
64211;BME280;50528;48.514;14.394;2023-05-22T00:15:58;93768.40;;;13.93;69.40
64211;BME280;50528;48.514;14.394;2023-05-22T00:16:31;93770.25;;;13.93;69.29
64211;BME280;50528;48.514;14.394;2023-05-22T00:17:04;93769.04;;;13.94;69.33
64211;BME280;50528;48.514;14.394;2023-05-22T00:17:38;93768.65;;;13.96;69.45
64211;BME280;50528;48.514;14.394;2023-05-22T00:18:12;93768.20;;;13.94;69.54
64211;BME280;50528;48.514;14.394;2023-05-22T00:18:48;93767.49;;;13.93;69.55
64211;BME280;50528;48.514;14.394;2023-05-22T00:19:21;93764.44;;;13.91;69.67
64211;BME280;50528;48.514;14.394;2023-05-22T00:19:55;93765.75;;;13.92;69.62
64211;BME280;50528;48.514;14.394;2023-05-22T00:20:28;93765.75;;;13.92;69.73
64211;BME280;50528;48.514;14.394;2023-05-22T00:21:02;93767.65;;;13.92;69.64
64211;BME280;50528;48.514;14.394;2023-05-22T00:21:38;93764.27;;;13.91;69.71
64211;BME280;50528;48.514;14.394;2023-05-22T00:22:11;93765.64;;;13.91;69.68
64211;BME280;50528;48.514;14.394;2023-05-22T00:22:45;93769.83;;;13.92;69.60
64211;BME280;50528;48.514;14.394;2023-05-22T00:23:20;93769.30;;;13.91;69.69
64211;BME280;50528;48.514;14.394;2023-05-22T00:23:54;93767.55;;;13.91;69.70
64211;BME280;50528;48.514;14.394;2023-05-22T00:24:27;93764.91;;;13.91;69.47
64211;BME280;50528;48.514;14.394;2023-05-22T00:25:04;93764.38;;;13.90;69.51
64211;BME280;50528;48.514;14.394;2023-05-22T00:25:38;93762.91;;;13.90;69.58
64211;BME280;50528;48.514;14.394;2023-05-22T00:26:13;93763.50;;;13.90;69.65
64211;BME280;50528;48.514;14.394;2023-05-22T00:26:48;93760.85;;;13.90;69.75
64211;BME280;50528;48.514;14.394;2023-05-22T00:27:21;93760.86;;;13.90;69.66
64211;BME280;50528;48.514;14.394;2023-05-22T00:27:55;93762.61;;;13.89;69.60
64211;BME280;50528;48.514;14.394;2023-05-22T00:28:28;93760.97;;;13.89;69.77
64211;BME280;50528;48.514;14.394;2023-05-22T00:29:01;93757.68;;;13.89;69.99
64211;BME280;50528;48.514;14.394;2023-05-22T00:29:35;93758.90;;;13.90;70.09
64211;BME280;50528;48.514;14.394;2023-05-22T00:30:09;93761.33;;;13.90;70.03
64211;BME280;50528;48.514;14.394;2023-05-22T00:30:43;93759.15;;;13.90;70.10
64211;BME280;50528;48.514;14.394;2023-05-22T00:31:17;93760.16;;;13.92;70.27
64211;BME280;50528;48.514;14.394;2023-05-22T00:31:50;93758.83;;;13.91;70.31
64211;BME280;50528;48.514;14.394;2023-05-22T00:32:27;93758.73;;;13.93;70.36
64211;BME280;50528;48.514;14.394;2023-05-22T00:33:01;93756.40;;;13.93;70.43
64211;BME280;50528;48.514;14.394;2023-05-22T00:33:37;93755.34;;;13.93;70.51
64211;BME280;50528;48.514;14.394;2023-05-22T00:34:10;93754.73;;;13.92;70.68
64211;BME280;50528;48.514;14.394;2023-05-22T00:34:44;93754.70;;;13.93;70.66
64211;BME280;50528;48.514;14.394;2023-05-22T00:35:17;93754.39;;;13.92;70.70
64211;BME280;50528;48.514;14.394;2023-05-22T00:35:50;93752.50;;;13.92;70.73
64211;BME280;50528;48.514;14.394;2023-05-22T00:36:24;93754.77;;;13.93;70.82
64211;BME280;50528;48.514;14.394;2023-05-22T00:36:57;93754.77;;;13.93;70.91
64211;BME280;50528;48.514;14.394;2023-05-22T00:37:30;93754.66;;;13.93;70.90
64211;BME280;50528;48.514;14.394;2023-05-22T00:38:04;93751.44;;;13.91;70.72
64211;BME280;50528;48.514;14.394;2023-05-22T00:38:38;93753.50;;;13.92;70.75
64211;BME280;50528;48.514;14.394;2023-05-22T00:39:12;93750.48;;;13.92;71.07
64211;BME280;50528;48.514;14.394;2023-05-22T00:39:45;93753.92;;;13.93;71.03
64211;BME280;50528;48.514;14.394;2023-05-22T00:40:20;93749.11;;;13.93;71.14
64211;BME280;50528;48.514;14.394;2023-05-22T00:40:53;93749.58;;;13.92;70.91
64211;BME280;50528;48.514;14.394;2023-05-22T00:41:27;93751.91;;;13.90;70.68
64211;BME280;50528;48.514;14.394;2023-05-22T00:42:01;93751.55;;;13.89;70.51
64211;BME280;50528;48.514;14.394;2023-05-22T00:42:34;93755.10;;;13.88;70.39
64211;BME280;50528;48.514;14.394;2023-05-22T00:43:08;93752.98;;;13.88;70.25
64211;BME280;50528;48.514;14.394;2023-05-22T00:43:41;93754.14;;;13.86;70.09
64211;BME280;50528;48.514;14.394;2023-05-22T00:44:17;93752.67;;;13.84;69.99
64211;BME280;50528;48.514;14.394;2023-05-22T00:44:51;93751.91;;;13.82;70.03
64211;BME280;50528;48.514;14.394;2023-05-22T00:45:24;93753.21;;;13.81;70.12
64211;BME280;50528;48.514;14.394;2023-05-22T00:45:58;93755.32;;;13.80;70.11
64211;BME280;50528;48.514;14.394;2023-05-22T00:46:31;93755.90;;;13.79;70.13
64211;BME280;50528;48.514;14.394;2023-05-22T00:47:09;93754.02;;;13.77;70.25
64211;BME280;50528;48.514;14.394;2023-05-22T00:47:44;93754.39;;;13.75;70.21
64211;BME280;50528;48.514;14.394;2023-05-22T00:48:21;93755.27;;;13.73;70.26
64211;BME280;50528;48.514;14.394;2023-05-22T00:48:55;93753.65;;;13.73;70.30
64211;BME280;50528;48.514;14.394;2023-05-22T00:49:29;93750.23;;;13.70;70.38
64211;BME280;50528;48.514;14.394;2023-05-22T00:50:04;93753.89;;;13.72;70.41
64211;BME280;50528;48.514;14.394;2023-05-22T00:50:38;93753.14;;;13.71;70.47
64211;BME280;50528;48.514;14.394;2023-05-22T00:51:12;93751.86;;;13.70;70.51
64211;BME280;50528;48.514;14.394;2023-05-22T00:51:45;93751.71;;;13.70;70.52
64211;BME280;50528;48.514;14.394;2023-05-22T00:52:19;93753.81;;;13.69;70.65
64211;BME280;50528;48.514;14.394;2023-05-22T00:52:52;93750.11;;;13.67;70.54
64211;BME280;50528;48.514;14.394;2023-05-22T00:53:27;93754.51;;;13.68;70.50
64211;BME280;50528;48.514;14.394;2023-05-22T00:54:04;93752.04;;;13.66;70.50
64211;BME280;50528;48.514;14.394;2023-05-22T00:54:38;93756.32;;;13.66;70.61
64211;BME280;50528;48.514;14.394;2023-05-22T00:55:13;93753.52;;;13.65;70.56
64211;BME280;50528;48.514;14.394;2023-05-22T00:55:48;93757.11;;;13.64;70.53
64211;BME280;50528;48.514;14.394;2023-05-22T00:56:22;93754.30;;;13.63;70.65
64211;BME280;50528;48.514;14.394;2023-05-22T00:57:02;93752.20;;;13.62;70.56
64211;BME280;50528;48.514;14.394;2023-05-22T00:57:37;93754.10;;;13.61;70.78
64211;BME280;50528;48.514;14.394;2023-05-22T00:58:16;93753.33;;;13.59;70.80
64211;BME280;50528;48.514;14.394;2023-05-22T00:58:49;93753.32;;;13.60;70.97
64211;BME280;50528;48.514;14.394;2023-05-22T00:59:23;93755.86;;;13.60;71.02
64211;BME280;50528;48.514;14.394;2023-05-22T00:59:56;93756.44;;;13.59;71.12
64211;BME280;50528;48.514;14.394;2023-05-22T01:00:31;93755.54;;;13.59;71.09
64211;BME280;50528;48.514;14.394;2023-05-22T01:01:06;93755.48;;;13.58;71.25
64211;BME280;50528;48.514;14.394;2023-05-22T01:01:41;93759.71;;;13.59;71.31
64211;BME280;50528;48.514;14.394;2023-05-22T01:02:17;93759.86;;;13.58;71.29
64211;BME280;50528;48.514;14.394;2023-05-22T01:02:50;93760.70;;;13.57;71.30
64211;BME280;50528;48.514;14.394;2023-05-22T01:03:24;93757.06;;;13.57;71.24
64211;BME280;50528;48.514;14.394;2023-05-22T01:04:04;93756.87;;;13.55;71.14
64211;BME280;50528;48.514;14.394;2023-05-22T01:04:41;93756.39;;;13.52;70.88
64211;BME280;50528;48.514;14.394;2023-05-22T01:05:20;93760.04;;;13.48;70.72
64211;BME280;50528;48.514;14.394;2023-05-22T01:05:54;93761.58;;;13.47;70.76
64211;BME280;50528;48.514;14.394;2023-05-22T01:06:28;93755.02;;;13.46;70.53
64211;BME280;50528;48.514;14.394;2023-05-22T01:07:04;93758.55;;;13.43;70.38
64211;BME280;50528;48.514;14.394;2023-05-22T01:07:38;93759.41;;;13.41;70.24
64211;BME280;50528;48.514;14.394;2023-05-22T01:08:11;93760.58;;;13.39;70.27
64211;BME280;50528;48.514;14.394;2023-05-22T01:08:45;93757.19;;;13.38;70.20
64211;BME280;50528;48.514;14.394;2023-05-22T01:09:18;93758.67;;;13.37;70.29
64211;BME280;50528;48.514;14.394;2023-05-22T01:09:51;93755.19;;;13.34;70.34
64211;BME280;50528;48.514;14.394;2023-05-22T01:10:26;93755.09;;;13.33;70.28
64211;BME280;50528;48.514;14.394;2023-05-22T01:13:45;93754.89;;;13.20;70.55
64211;BME280;50528;48.514;14.394;2023-05-22T01:16:45;93754.84;;;13.03;71.10
64211;BME280;50528;48.514;14.394;2023-05-22T01:20:59;93753.36;;;12.97;71.88
64211;BME280;50528;48.514;14.394;2023-05-22T01:21:44;93754.31;;;12.97;71.91
64211;BME280;50528;48.514;14.394;2023-05-22T01:30:43;93752.41;;;12.90;72.58
64211;BME280;50528;48.514;14.394;2023-05-22T01:31:23;93752.27;;;12.89;72.81
64211;BME280;50528;48.514;14.394;2023-05-22T01:31:59;93753.27;;;12.90;72.77
64211;BME280;50528;48.514;14.394;2023-05-22T01:32:35;93751.73;;;12.92;72.92
64211;BME280;50528;48.514;14.394;2023-05-22T01:33:13;93747.89;;;12.94;72.93
64211;BME280;50528;48.514;14.394;2023-05-22T01:33:50;93751.22;;;12.95;72.97
64211;BME280;50528;48.514;14.394;2023-05-22T01:34:25;93749.00;;;12.95;72.99
64211;BME280;50528;48.514;14.394;2023-05-22T01:35:01;93747.84;;;12.96;72.85
64211;BME280;50528;48.514;14.394;2023-05-22T01:35:37;93748.03;;;12.97;72.93
64211;BME280;50528;48.514;14.394;2023-05-22T01:36:13;93747.84;;;12.96;72.83
64211;BME280;50528;48.514;14.394;2023-05-22T01:36:48;93746.23;;;12.96;72.66
64211;BME280;50528;48.514;14.394;2023-05-22T01:37:23;93743.98;;;12.96;72.63
64211;BME280;50528;48.514;14.394;2023-05-22T01:37:59;93745.73;;;12.95;72.61
64211;BME280;50528;48.514;14.394;2023-05-22T01:38:33;93746.25;;;12.96;72.62
64211;BME280;50528;48.514;14.394;2023-05-22T01:39:07;93744.82;;;12.96;72.62
64211;BME280;50528;48.514;14.394;2023-05-22T01:39:42;93746.62;;;12.96;72.63
64211;BME280;50528;48.514;14.394;2023-05-22T01:40:16;93743.94;;;12.95;72.56
64211;BME280;50528;48.514;14.394;2023-05-22T01:40:50;93746.05;;;12.95;72.47
64211;BME280;50528;48.514;14.394;2023-05-22T01:41:27;93745.88;;;12.96;72.55
64211;BME280;50528;48.514;14.394;2023-05-22T01:42:01;93744.67;;;12.94;72.60
64211;BME280;50528;48.514;14.394;2023-05-22T01:42:34;93746.08;;;12.92;72.47
64211;BME280;50528;48.514;14.394;2023-05-22T01:43:08;93744.24;;;12.90;72.51
64211;BME280;50528;48.514;14.394;2023-05-22T01:43:42;93745.35;;;12.88;72.32
64211;BME280;50528;48.514;14.394;2023-05-22T01:44:16;93743.02;;;12.87;72.45
64211;BME280;50528;48.514;14.394;2023-05-22T01:44:49;93742.49;;;12.86;72.36
64211;BME280;50528;48.514;14.394;2023-05-22T01:45:23;93747.02;;;12.87;72.34
64211;BME280;50528;48.514;14.394;2023-05-22T01:45:56;93744.17;;;12.85;72.28
64211;BME280;50528;48.514;14.394;2023-05-22T01:46:30;93747.40;;;12.84;72.05
64211;BME280;50528;48.514;14.394;2023-05-22T01:47:03;93748.83;;;12.83;72.00
64211;BME280;50528;48.514;14.394;2023-05-22T01:47:37;93744.92;;;12.82;71.78
64211;BME280;50528;48.514;14.394;2023-05-22T01:48:11;93746.86;;;12.81;71.73
64211;BME280;50528;48.514;14.394;2023-05-22T01:48:44;93746.61;;;12.78;71.81
64211;BME280;50528;48.514;14.394;2023-05-22T01:50:43;93748.38;;;12.66;71.84
64211;BME280;50528;48.514;14.394;2023-05-22T01:52:33;93744.19;;;12.56;71.84
64211;BME280;50528;48.514;14.394;2023-05-22T01:54:50;93745.34;;;12.46;72.44
64211;BME280;50528;48.514;14.394;2023-05-22T01:55:45;93740.53;;;12.45;72.42
64211;BME280;50528;48.514;14.394;2023-05-22T01:57:01;93738.15;;;12.42;72.58
64211;BME280;50528;48.514;14.394;2023-05-22T01:58:02;93735.22;;;12.38;72.78
64211;BME280;50528;48.514;14.394;2023-05-22T01:58:46;93735.04;;;12.36;72.90
64211;BME280;50528;48.514;14.394;2023-05-22T01:59:32;93738.40;;;12.36;73.04
64211;BME280;50528;48.514;14.394;2023-05-22T02:00:08;93736.77;;;12.35;73.08
64211;BME280;50528;48.514;14.394;2023-05-22T02:00:50;93737.71;;;12.35;73.17
64211;BME280;50528;48.514;14.394;2023-05-22T02:01:27;93737.03;;;12.35;72.96
64211;BME280;50528;48.514;14.394;2023-05-22T02:02:05;93737.02;;;12.34;72.71
64211;BME280;50528;48.514;14.394;2023-05-22T02:02:42;93736.86;;;12.31;72.62
64211;BME280;50528;48.514;14.394;2023-05-22T02:03:19;93740.29;;;12.29;72.57
64211;BME280;50528;48.514;14.394;2023-05-22T02:03:56;93739.37;;;12.27;72.27
64211;BME280;50528;48.514;14.394;2023-05-22T02:04:31;93737.68;;;12.25;72.16
64211;BME280;50528;48.514;14.394;2023-05-22T02:05:06;93739.53;;;12.23;72.13
64211;BME280;50528;48.514;14.394;2023-05-22T02:05:42;93739.67;;;12.22;72.08
64211;BME280;50528;48.514;14.394;2023-05-22T02:06:18;93735.77;;;12.20;72.09
64211;BME280;50528;48.514;14.394;2023-05-22T02:06:52;93737.08;;;12.19;72.18
64211;BME280;50528;48.514;14.394;2023-05-22T02:07:26;93738.35;;;12.19;72.31
64211;BME280;50528;48.514;14.394;2023-05-22T02:08:02;93737.23;;;12.20;72.42
64211;BME280;50528;48.514;14.394;2023-05-22T02:08:37;93736.98;;;12.20;72.39
64211;BME280;50528;48.514;14.394;2023-05-22T02:09:14;93736.52;;;12.19;72.53
64211;BME280;50528;48.514;14.394;2023-05-22T02:09:50;93732.14;;;12.19;72.52
64211;BME280;50528;48.514;14.394;2023-05-22T02:10:25;93736.70;;;12.19;72.66
64211;BME280;50528;48.514;14.394;2023-05-22T02:11:01;93735.88;;;12.19;72.65
64211;BME280;50528;48.514;14.394;2023-05-22T02:11:37;93735.34;;;12.20;72.61
64211;BME280;50528;48.514;14.394;2023-05-22T02:12:12;93735.77;;;12.21;72.72
64211;BME280;50528;48.514;14.394;2023-05-22T02:12:45;93737.67;;;12.22;72.77
64211;BME280;50528;48.514;14.394;2023-05-22T02:13:19;93734.25;;;12.23;72.93
64211;BME280;50528;48.514;14.394;2023-05-22T02:13:54;93733.93;;;12.23;72.88
64211;BME280;50528;48.514;14.394;2023-05-22T02:14:28;93737.85;;;12.24;73.02
64211;BME280;50528;48.514;14.394;2023-05-22T02:15:03;93737.02;;;12.25;73.13
64211;BME280;50528;48.514;14.394;2023-05-22T02:15:37;93735.77;;;12.26;73.26
64211;BME280;50528;48.514;14.394;2023-05-22T02:16:10;93736.10;;;12.27;73.32
64211;BME280;50528;48.514;14.394;2023-05-22T02:16:44;93735.42;;;12.28;73.33
64211;BME280;50528;48.514;14.394;2023-05-22T02:17:19;93732.53;;;12.29;73.43
64211;BME280;50528;48.514;14.394;2023-05-22T02:17:54;93732.54;;;12.30;73.33
64211;BME280;50528;48.514;14.394;2023-05-22T02:18:29;93732.48;;;12.30;73.32
64211;BME280;50528;48.514;14.394;2023-05-22T02:19:03;93730.39;;;12.31;73.23
64211;BME280;50528;48.514;14.394;2023-05-22T02:19:40;93731.33;;;12.29;73.33
64211;BME280;50528;48.514;14.394;2023-05-22T02:20:14;93735.02;;;12.32;73.21
64211;BME280;50528;48.514;14.394;2023-05-22T02:20:48;93730.68;;;12.31;73.19
64211;BME280;50528;48.514;14.394;2023-05-22T02:21:21;93735.48;;;12.33;73.18
64211;BME280;50528;48.514;14.394;2023-05-22T02:21:55;93734.64;;;12.33;73.11
64211;BME280;50528;48.514;14.394;2023-05-22T02:22:28;93731.11;;;12.34;73.26
64211;BME280;50528;48.514;14.394;2023-05-22T02:23:02;93730.33;;;12.34;73.31
64211;BME280;50528;48.514;14.394;2023-05-22T02:23:35;93727.75;;;12.35;73.25
64211;BME280;50528;48.514;14.394;2023-05-22T02:24:09;93728.65;;;12.36;73.42
64211;BME280;50528;48.514;14.394;2023-05-22T02:24:45;93731.39;;;12.36;73.41
64211;BME280;50528;48.514;14.394;2023-05-22T02:25:20;93728.64;;;12.35;73.41
64211;BME280;50528;48.514;14.394;2023-05-22T02:25:53;93731.70;;;12.35;73.39
64211;BME280;50528;48.514;14.394;2023-05-22T02:26:27;93722.25;;;12.28;73.38
64211;BME280;50528;48.514;14.394;2023-05-22T02:27:01;93731.54;;;12.34;73.36
64211;BME280;50528;48.514;14.394;2023-05-22T02:27:34;93731.32;;;12.33;73.37
64211;BME280;50528;48.514;14.394;2023-05-22T02:28:08;93729.73;;;12.31;73.35
64211;BME280;50528;48.514;14.394;2023-05-22T02:28:41;93731.81;;;12.31;73.28
64211;BME280;50528;48.514;14.394;2023-05-22T02:29:15;93730.90;;;12.29;73.24
64211;BME280;50528;48.514;14.394;2023-05-22T02:29:49;93725.93;;;12.26;73.14
64211;BME280;50528;48.514;14.394;2023-05-22T02:30:23;93725.61;;;12.25;73.05
64211;BME280;50528;48.514;14.394;2023-05-22T02:30:57;93728.09;;;12.23;73.10
64211;BME280;50528;48.514;14.394;2023-05-22T02:31:30;93729.60;;;12.21;73.03
64211;BME280;50528;48.514;14.394;2023-05-22T02:32:04;93729.76;;;12.20;72.83
64211;BME280;50528;48.514;14.394;2023-05-22T02:32:39;93723.44;;;12.18;72.77
64211;BME280;50528;48.514;14.394;2023-05-22T02:33:12;93728.07;;;12.17;72.47
64211;BME280;50528;48.514;14.394;2023-05-22T02:33:50;93723.58;;;12.14;72.41
64211;BME280;50528;48.514;14.394;2023-05-22T02:34:24;93723.84;;;12.12;72.27
64211;BME280;50528;48.514;14.394;2023-05-22T02:34:58;93723.87;;;12.09;72.16
64211;BME280;50528;48.514;14.394;2023-05-22T02:35:32;93723.45;;;12.08;72.08
64211;BME280;50528;48.514;14.394;2023-05-22T02:36:06;93724.92;;;12.06;72.07
64211;BME280;50528;48.514;14.394;2023-05-22T02:36:42;93723.33;;;12.03;72.01
64211;BME280;50528;48.514;14.394;2023-05-22T02:37:16;93725.84;;;12.01;72.00
64211;BME280;50528;48.514;14.394;2023-05-22T02:37:49;93728.33;;;12.00;72.08
64211;BME280;50528;48.514;14.394;2023-05-22T02:38:23;93726.21;;;11.99;72.24
64211;BME280;50528;48.514;14.394;2023-05-22T02:38:58;93724.20;;;11.98;72.25
64211;BME280;50528;48.514;14.394;2023-05-22T02:39:31;93725.09;;;11.97;72.42
64211;BME280;50528;48.514;14.394;2023-05-22T02:40:05;93724.25;;;11.96;72.43
64211;BME280;50528;48.514;14.394;2023-05-22T02:40:38;93723.41;;;11.94;72.63
64211;BME280;50528;48.514;14.394;2023-05-22T02:41:12;93721.14;;;11.94;72.72
64211;BME280;50528;48.514;14.394;2023-05-22T02:41:46;93722.29;;;11.93;73.01
64211;BME280;50528;48.514;14.394;2023-05-22T02:42:19;93724.81;;;11.93;73.22
64211;BME280;50528;48.514;14.394;2023-05-22T02:42:53;93725.97;;;11.92;73.48
64211;BME280;50528;48.514;14.394;2023-05-22T02:43:26;93723.49;;;11.92;73.63
64211;BME280;50528;48.514;14.394;2023-05-22T02:43:59;93724.28;;;11.92;73.81
64211;BME280;50528;48.514;14.394;2023-05-22T02:44:33;93723.11;;;11.90;74.02
64211;BME280;50528;48.514;14.394;2023-05-22T02:45:07;93724.27;;;11.90;74.03
64211;BME280;50528;48.514;14.394;2023-05-22T02:45:40;93726.13;;;11.91;74.16
64211;BME280;50528;48.514;14.394;2023-05-22T02:46:14;93723.64;;;11.91;74.41
64211;BME280;50528;48.514;14.394;2023-05-22T02:46:47;93726.54;;;11.91;74.58
64211;BME280;50528;48.514;14.394;2023-05-22T02:47:21;93725.39;;;11.92;74.60
64211;BME280;50528;48.514;14.394;2023-05-22T02:47:54;93722.92;;;11.92;74.70
64211;BME280;50528;48.514;14.394;2023-05-22T02:48:27;93721.86;;;11.92;74.70
64211;BME280;50528;48.514;14.394;2023-05-22T02:49:03;93720.65;;;11.92;74.66
64211;BME280;50528;48.514;14.394;2023-05-22T02:49:37;93724.86;;;11.92;74.62
64211;BME280;50528;48.514;14.394;2023-05-22T02:50:10;93724.80;;;11.92;74.67
64211;BME280;50528;48.514;14.394;2023-05-22T02:50:43;93725.66;;;11.91;74.65
64211;BME280;50528;48.514;14.394;2023-05-22T02:51:17;93725.33;;;11.90;74.68
64211;BME280;50528;48.514;14.394;2023-05-22T02:51:50;93724.07;;;11.91;74.64
64211;BME280;50528;48.514;14.394;2023-05-22T02:52:24;93724.55;;;11.90;74.71
64211;BME280;50528;48.514;14.394;2023-05-22T02:52:57;93721.44;;;11.89;74.62
64211;BME280;50528;48.514;14.394;2023-05-22T02:53:31;93722.91;;;11.88;74.57
64211;BME280;50528;48.514;14.394;2023-05-22T02:54:07;93716.66;;;11.83;74.52
64211;BME280;50528;48.514;14.394;2023-05-22T02:54:40;93721.73;;;11.85;74.48
64211;BME280;50528;48.514;14.394;2023-05-22T02:55:14;93719.45;;;11.84;74.34
64211;BME280;50528;48.514;14.394;2023-05-22T02:55:47;93721.98;;;11.82;74.15
64211;BME280;50528;48.514;14.394;2023-05-22T02:56:20;93722.33;;;11.80;74.04
64211;BME280;50528;48.514;14.394;2023-05-22T02:56:54;93719.70;;;11.78;73.90
64211;BME280;50528;48.514;14.394;2023-05-22T02:57:27;93719.55;;;11.77;73.63
64211;BME280;50528;48.514;14.394;2023-05-22T02:58:01;93720.61;;;11.73;73.48
64211;BME280;50528;48.514;14.394;2023-05-22T02:58:35;93723.96;;;11.71;73.21
64211;BME280;50528;48.514;14.394;2023-05-22T02:59:08;93720.98;;;11.68;72.99
64211;BME280;50528;48.514;14.394;2023-05-22T02:59:42;93719.24;;;11.66;72.88
64211;BME280;50528;48.514;14.394;2023-05-22T03:00:16;93715.31;;;11.62;72.83
64211;BME280;50528;48.514;14.394;2023-05-22T03:00:50;93717.10;;;11.58;72.74
64211;BME280;50528;48.514;14.394;2023-05-22T03:01:24;93714.39;;;11.54;72.79
64211;BME280;50528;48.514;14.394;2023-05-22T03:01:59;93713.05;;;11.50;72.84
64211;BME280;50528;48.514;14.394;2023-05-22T03:02:33;93716.52;;;11.48;72.93
64211;BME280;50528;48.514;14.394;2023-05-22T03:03:08;93714.86;;;11.45;73.10
64211;BME280;50528;48.514;14.394;2023-05-22T03:03:42;93715.84;;;11.43;73.11
64211;BME280;50528;48.514;14.394;2023-05-22T03:04:15;93714.48;;;11.42;73.19
64211;BME280;50528;48.514;14.394;2023-05-22T03:04:49;93714.27;;;11.41;73.22
64211;BME280;50528;48.514;14.394;2023-05-22T03:05:22;93711.26;;;11.40;73.33
64211;BME280;50528;48.514;14.394;2023-05-22T03:05:56;93709.56;;;11.39;73.40
64211;BME280;50528;48.514;14.394;2023-05-22T03:06:30;93710.23;;;11.38;73.58
64211;BME280;50528;48.514;14.394;2023-05-22T03:07:04;93709.17;;;11.36;73.82
64211;BME280;50528;48.514;14.394;2023-05-22T03:07:39;93714.08;;;11.35;73.95
64211;BME280;50528;48.514;14.394;2023-05-22T03:08:13;93710.02;;;11.34;74.18
64211;BME280;50528;48.514;14.394;2023-05-22T03:08:47;93708.11;;;11.34;74.41
64211;BME280;50528;48.514;14.394;2023-05-22T03:09:21;93709.27;;;11.34;74.69
64211;BME280;50528;48.514;14.394;2023-05-22T03:09:55;93709.59;;;11.35;74.71
64211;BME280;50528;48.514;14.394;2023-05-22T03:10:28;93711.17;;;11.34;75.03
64211;BME280;50528;48.514;14.394;2023-05-22T03:11:02;93709.55;;;11.35;75.27
64211;BME280;50528;48.514;14.394;2023-05-22T03:11:36;93707.23;;;11.35;75.50
64211;BME280;50528;48.514;14.394;2023-05-22T03:12:09;93708.28;;;11.36;75.69
64211;BME280;50528;48.514;14.394;2023-05-22T03:12:43;93708.70;;;11.37;75.76
64211;BME280;50528;48.514;14.394;2023-05-22T03:13:16;93709.08;;;11.38;76.01
64211;BME280;50528;48.514;14.394;2023-05-22T03:13:49;93705.77;;;11.39;76.14
64211;BME280;50528;48.514;14.394;2023-05-22T03:14:23;93708.89;;;11.40;76.22
64211;BME280;50528;48.514;14.394;2023-05-22T03:14:56;93700.20;;;11.37;76.36
64211;BME280;50528;48.514;14.394;2023-05-22T03:15:29;93706.16;;;11.41;76.45
64211;BME280;50528;48.514;14.394;2023-05-22T03:16:06;93706.27;;;11.43;76.41
64211;BME280;50528;48.514;14.394;2023-05-22T03:16:40;93708.16;;;11.43;76.57
64211;BME280;50528;48.514;14.394;2023-05-22T03:17:14;93703.27;;;11.42;76.51
64211;BME280;50528;48.514;14.394;2023-05-22T03:17:47;93703.06;;;11.44;76.50
64211;BME280;50528;48.514;14.394;2023-05-22T03:18:20;93702.33;;;11.44;76.42
64211;BME280;50528;48.514;14.394;2023-05-22T03:19:13;93706.88;;;11.47;76.38
64211;BME280;50528;48.514;14.394;2023-05-22T03:19:47;93707.13;;;11.45;76.39
64211;BME280;50528;48.514;14.394;2023-05-22T03:20:21;93706.39;;;11.45;76.36
64211;BME280;50528;48.514;14.394;2023-05-22T03:20:54;93709.19;;;11.46;76.43
64211;BME280;50528;48.514;14.394;2023-05-22T03:21:27;93706.88;;;11.47;76.36
64211;BME280;50528;48.514;14.394;2023-05-22T03:22:01;93707.78;;;11.48;76.48
64211;BME280;50528;48.514;14.394;2023-05-22T03:22:34;93711.67;;;11.49;76.48
64211;BME280;50528;48.514;14.394;2023-05-22T03:23:10;93710.73;;;11.49;76.46
64211;BME280;50528;48.514;14.394;2023-05-22T03:23:44;93712.84;;;11.51;76.47